createdAt,value
2022-12-26T00:00:58.039Z,102464.38
2022-12-26T00:03:24.917Z,102382.88
2022-12-26T00:05:51.634Z,102393.72
2022-12-26T00:08:18.396Z,102413.88
2022-12-26T00:10:45.088Z,102396.06
2022-12-26T00:13:39.381Z,102395.97
2022-12-26T00:15:58.360Z,102359.50
2022-12-26T00:18:25.223Z,102331.47
2022-12-26T00:20:51.818Z,102340.09
2022-12-26T00:23:18.362Z,102328.09
2022-12-26T00:25:44.958Z,102211.63
2022-12-26T00:28:11.429Z,102252.38
2022-12-26T00:30:38.273Z,102195.84
2022-12-26T00:33:04.712Z,102184.31
2022-12-26T00:35:31.195Z,102158.63
2022-12-26T00:37:57.768Z,102129.13
2022-12-26T00:40:24.390Z,102082.56
2022-12-26T00:42:50.835Z,102073.75
2022-12-26T00:45:17.482Z,102065.78
2022-12-26T00:47:44.100Z,102044.28
2022-12-26T00:50:15.016Z,102038.59
2022-12-26T00:52:43.153Z,101959.28
2022-12-26T00:55:10.584Z,101935.22
2022-12-26T00:57:37.300Z,101907.53
2022-12-26T01:00:04.901Z,101981.47
2022-12-26T01:02:31.665Z,101979.19
2022-12-26T01:04:58.237Z,101972.03
2022-12-26T01:07:24.691Z,101934.13
2022-12-26T01:09:51.241Z,101929.41
2022-12-26T01:12:17.685Z,101924.84
2022-12-26T01:14:44.466Z,101915.91
2022-12-26T01:17:11.215Z,101885.47
2022-12-26T01:19:37.770Z,101892.31
2022-12-26T01:22:04.432Z,101895.72
2022-12-26T01:24:30.948Z,101820.72
2022-12-26T01:26:57.531Z,101880.91
2022-12-26T01:29:24.100Z,101862.03
2022-12-26T01:31:50.670Z,101831.78
2022-12-26T01:34:17.322Z,101841.06
2022-12-26T01:36:44.046Z,101852.63
2022-12-26T01:39:10.512Z,101849.38
2022-12-26T01:41:36.990Z,101788.69
2022-12-26T01:44:06.561Z,101760.56
2022-12-26T01:46:41.426Z,101846.75
2022-12-26T01:49:17.986Z,101870.84
2022-12-26T01:51:50.201Z,101823.78
2022-12-26T01:54:37.816Z,101823.31
2022-12-26T01:57:09.896Z,101814.22
2022-12-26T01:59:39.673Z,101803.94
2022-12-26T02:02:06.793Z,101785.72
2022-12-26T02:04:39.700Z,101772.19
2022-12-26T02:07:06.538Z,101723.88
2022-12-26T02:09:33.619Z,101743.38
2022-12-26T02:12:34.631Z,101751.38
2022-12-26T02:15:02.724Z,101762.44
2022-12-26T02:17:29.688Z,101753.16
2022-12-26T02:20:29.082Z,101729.25
2022-12-26T02:23:14.330Z,101739.66
2022-12-26T02:26:18.533Z,101728.44
2022-12-26T02:29:16.181Z,101740.97
2022-12-26T02:32:10.480Z,101716.56
2022-12-26T02:35:00.853Z,101715.59
2022-12-26T02:37:53.594Z,101713.16
2022-12-26T02:40:35.057Z,101707.31
2022-12-26T02:43:16.844Z,101697.09
2022-12-26T02:46:01.319Z,101741.34
2022-12-26T02:48:40.954Z,101691.78
2022-12-26T02:51:17.314Z,101713.53
2022-12-26T02:54:21.630Z,101740.53
2022-12-26T02:56:56.999Z,101745.25
2022-12-26T02:59:56.544Z,101740.34
2022-12-26T03:02:52.240Z,101727.03
2022-12-26T03:05:33.821Z,101655.06
2022-12-26T03:08:04.456Z,101706.00
2022-12-26T03:10:35.428Z,101702.75
2022-12-26T03:13:07.459Z,101715.78
2022-12-26T03:15:37.475Z,101693.03
2022-12-26T03:18:07.736Z,101703.41
2022-12-26T03:20:36.735Z,101694.81
2022-12-26T03:23:11.291Z,101695.31
2022-12-26T03:25:46.526Z,101686.03
2022-12-26T03:28:14.029Z,101628.69
2022-12-26T03:30:41.054Z,101670.56
2022-12-26T03:33:08.160Z,101603.56
2022-12-26T03:35:34.567Z,101659.19
2022-12-26T03:38:16.053Z,101606.63
2022-12-26T03:40:52.995Z,101659.84
2022-12-26T03:43:36.898Z,101614.09
2022-12-26T03:46:06.084Z,101597.69
2022-12-26T03:48:49.448Z,101637.09
2022-12-26T03:51:45.433Z,101637.25
2022-12-26T03:54:19.258Z,101576.28
2022-12-26T03:56:52.601Z,101607.88
2022-12-26T03:59:48.803Z,101627.19
2022-12-26T04:02:16.623Z,101612.94
2022-12-26T04:04:45.971Z,101614.69
2022-12-26T04:07:18.603Z,101623.03
2022-12-26T04:09:50.458Z,101612.28
2022-12-26T04:12:23.351Z,101599.81
2022-12-26T04:15:05.191Z,101619.78
2022-12-26T04:17:53.928Z,101607.75
2022-12-26T04:20:41.230Z,101597.19
2022-12-26T04:23:18.167Z,101585.13
2022-12-26T04:25:51.910Z,101573.44
2022-12-26T04:28:20.704Z,101574.88
2022-12-26T04:30:56.369Z,101554.22
2022-12-26T04:33:33.931Z,101543.31
2022-12-26T04:36:05.515Z,101533.56
2022-12-26T04:38:38.867Z,101528.94
2022-12-26T04:41:07.565Z,101452.59
2022-12-26T04:43:48.112Z,101496.16
2022-12-26T04:46:19.163Z,101473.75
2022-12-26T04:48:48.209Z,101411.19
2022-12-26T04:51:14.796Z,101453.16
2022-12-26T04:53:41.329Z,101469.97
2022-12-26T04:56:09.605Z,101474.22
2022-12-26T04:58:36.088Z,101469.03
2022-12-26T05:01:03.973Z,101467.69
2022-12-26T05:03:30.571Z,101480.19
2022-12-26T05:05:57.046Z,101474.34
2022-12-26T05:08:33.171Z,101451.56
2022-12-26T05:10:59.698Z,101427.09
2022-12-26T05:13:26.171Z,101454.78
2022-12-26T05:15:52.693Z,101449.25
2022-12-26T05:18:19.239Z,101444.84
2022-12-26T05:20:45.657Z,101433.13
2022-12-26T05:23:20.131Z,101429.56
2022-12-26T05:25:47.557Z,101358.66
2022-12-26T05:28:15.863Z,101421.53
2022-12-26T05:30:42.292Z,101413.97
2022-12-26T05:33:08.737Z,101422.25
2022-12-26T05:35:36.019Z,101407.41
2022-12-26T05:38:03.258Z,101400.44
2022-12-26T05:40:29.983Z,101391.94
2022-12-26T05:42:56.478Z,101372.69
2022-12-26T05:45:23.050Z,101380.78
2022-12-26T05:47:52.051Z,101383.28
2022-12-26T05:50:32.227Z,101377.44
2022-12-26T05:52:59.599Z,101363.00
2022-12-26T05:55:26.192Z,101368.66
2022-12-26T05:57:52.767Z,101373.63
2022-12-26T06:00:19.604Z,101369.38
2022-12-26T06:02:46.202Z,101338.09
2022-12-26T06:05:12.865Z,101299.00
2022-12-26T06:07:39.417Z,101334.91
2022-12-26T06:10:06.694Z,101337.34
2022-12-26T06:12:34.035Z,101320.72
2022-12-26T06:15:00.563Z,101266.44
2022-12-26T06:17:27.066Z,101354.13
2022-12-26T06:19:53.619Z,101353.94
2022-12-26T06:22:20.139Z,101337.63
2022-12-26T06:24:46.596Z,101334.38
2022-12-26T06:27:13.078Z,101320.06
2022-12-26T06:29:39.525Z,101305.25
2022-12-26T06:32:06.044Z,101323.88
2022-12-26T06:34:32.689Z,101332.31
2022-12-26T06:36:59.115Z,101316.53
2022-12-26T06:39:25.585Z,101322.63
2022-12-26T06:41:52.079Z,101314.47
2022-12-26T06:44:18.968Z,101324.16
2022-12-26T06:46:46.250Z,101264.94
2022-12-26T06:49:13.004Z,101240.19
2022-12-26T06:51:39.515Z,101307.19
2022-12-26T06:54:05.991Z,101243.28
2022-12-26T06:56:33.084Z,101301.81
2022-12-26T06:59:02.547Z,101292.03
2022-12-26T07:01:31.574Z,101288.19
2022-12-26T07:03:58.812Z,101302.25
2022-12-26T07:06:28.276Z,101299.38
2022-12-26T07:08:58.007Z,101301.72
2022-12-26T07:11:27.249Z,101233.94
2022-12-26T07:13:54.793Z,101266.81
2022-12-26T07:16:21.944Z,101304.34
2022-12-26T07:18:48.547Z,101270.75
2022-12-26T07:21:15.916Z,101288.72
2022-12-26T07:23:42.865Z,101225.13
2022-12-26T07:26:09.418Z,101285.19
2022-12-26T07:28:35.894Z,101222.28
2022-12-26T07:31:03.081Z,101212.59
2022-12-26T07:33:30.102Z,101284.03
2022-12-26T07:36:01.093Z,101284.44
2022-12-26T07:38:27.586Z,101211.25
2022-12-26T07:40:57.758Z,101223.34
2022-12-26T07:43:24.943Z,101284.97
2022-12-26T07:45:51.668Z,101279.59
2022-12-26T07:48:18.579Z,101264.63
2022-12-26T07:50:45.072Z,101231.03
2022-12-26T07:53:11.591Z,101287.78
2022-12-26T07:55:38.087Z,101306.66
2022-12-26T07:58:04.631Z,101288.47
2022-12-26T08:00:32.933Z,101269.78
2022-12-26T08:03:06.441Z,101262.47
2022-12-26T08:05:34.046Z,101283.09
2022-12-26T08:08:00.547Z,101290.75
2022-12-26T08:10:27.138Z,101287.06
2022-12-26T08:12:53.593Z,101284.88
2022-12-26T08:15:20.048Z,101290.34
2022-12-26T08:17:46.490Z,101280.31
2022-12-26T08:20:13.010Z,101290.28
2022-12-26T08:22:39.507Z,101287.41
2022-12-26T08:25:06.670Z,101294.22
2022-12-26T08:27:34.110Z,101248.09
2022-12-26T08:30:00.651Z,101299.09
2022-12-26T08:32:27.511Z,101293.75
2022-12-26T08:34:54.000Z,101285.88
2022-12-26T08:37:20.533Z,101300.28
2022-12-26T08:39:47.079Z,101301.63
2022-12-26T08:42:13.578Z,101232.22
2022-12-26T08:44:40.140Z,101301.22
2022-12-26T08:47:06.656Z,101316.16
2022-12-26T08:49:33.086Z,101315.19
2022-12-26T08:51:59.640Z,101310.53
2022-12-26T08:54:26.113Z,101326.84
2022-12-26T08:56:53.051Z,101274.78
2022-12-26T08:59:19.746Z,101319.94
2022-12-26T09:01:46.404Z,101336.09
2022-12-26T09:04:12.952Z,101334.84
2022-12-26T09:06:39.895Z,101342.50
2022-12-26T09:09:09.048Z,101345.84
2022-12-26T09:11:35.611Z,101340.63
2022-12-26T09:14:04.103Z,101284.97
2022-12-26T09:16:40.042Z,101362.31
2022-12-26T09:19:11.907Z,101364.53
2022-12-26T09:21:39.739Z,101334.69
2022-12-26T09:24:10.588Z,101363.50
2022-12-26T09:26:37.973Z,101318.25
2022-12-26T09:29:04.784Z,101389.03
2022-12-26T09:31:33.897Z,101421.81
2022-12-26T09:34:05.450Z,101411.38
2022-12-26T09:36:35.070Z,101435.25
2022-12-26T09:39:01.784Z,101455.22
2022-12-26T09:42:04.701Z,101491.66
2022-12-26T09:44:48.297Z,101482.63
2022-12-26T09:47:27.117Z,101509.88
2022-12-26T09:50:05.625Z,101524.44
2022-12-26T09:52:57.948Z,101548.94
2022-12-26T09:55:39.930Z,101518.84
2022-12-26T09:58:17.019Z,101556.31
2022-12-26T10:01:05.672Z,101558.09
2022-12-26T10:03:39.967Z,101546.75
2022-12-26T10:06:25.040Z,101568.41
2022-12-26T10:09:21.712Z,101579.34
2022-12-26T10:12:03.416Z,101590.94
2022-12-26T10:14:38.857Z,101601.50
2022-12-26T10:17:31.598Z,101556.56
2022-12-26T10:20:00.958Z,101598.91
2022-12-26T10:22:51.036Z,101608.78
2022-12-26T10:25:42.657Z,101613.69
2022-12-26T10:28:22.121Z,101617.44
2022-12-26T10:30:50.852Z,101607.50
2022-12-26T10:33:29.024Z,101617.09
2022-12-26T10:35:55.703Z,101556.06
2022-12-26T10:38:39.980Z,101612.56
2022-12-26T10:41:14.379Z,101558.53
2022-12-26T10:43:41.246Z,101599.06
2022-12-26T10:46:26.359Z,101608.97
2022-12-26T10:48:53.884Z,101617.25
2022-12-26T10:51:20.327Z,101618.72
2022-12-26T10:53:51.023Z,101605.09
2022-12-26T10:56:18.731Z,101553.31
2022-12-26T10:58:46.046Z,101620.84
2022-12-26T11:01:32.959Z,101622.44
2022-12-26T11:04:18.890Z,101589.94
2022-12-26T11:06:51.318Z,101620.69
2022-12-26T11:09:44.257Z,101641.28
2022-12-26T11:12:39.227Z,101644.25
2022-12-26T11:15:28.298Z,101635.94
2022-12-26T11:18:06.761Z,101636.44
2022-12-26T11:20:33.393Z,101638.22
2022-12-26T11:23:20.704Z,101618.91
2022-12-26T11:25:49.712Z,101620.22
2022-12-26T11:28:35.820Z,101627.31
2022-12-26T11:31:06.396Z,101624.59
2022-12-26T11:33:44.621Z,101634.31
2022-12-26T11:36:19.255Z,101633.34
2022-12-26T11:38:50.514Z,101626.19
2022-12-26T11:41:19.206Z,101624.56
2022-12-26T11:43:46.624Z,101599.72
2022-12-26T11:46:13.453Z,101626.78
2022-12-26T11:48:40.137Z,101635.78
2022-12-26T11:51:09.252Z,101631.72
2022-12-26T11:53:35.809Z,101644.06
2022-12-26T11:56:06.086Z,101634.66
2022-12-26T11:58:34.173Z,101647.34
2022-12-26T12:01:00.602Z,101647.16
2022-12-26T12:03:36.274Z,101657.38
2022-12-26T12:06:24.517Z,101658.31
2022-12-26T12:09:09.749Z,101659.84
2022-12-26T12:11:51.582Z,101658.59
2022-12-26T12:14:33.121Z,101669.06
2022-12-26T12:17:24.641Z,101657.72
2022-12-26T12:20:06.056Z,101630.44
2022-12-26T12:22:48.170Z,101662.28
2022-12-26T12:25:37.781Z,101656.75
2022-12-26T12:28:42.417Z,101673.47
2022-12-26T12:31:42.723Z,101672.44
2022-12-26T12:34:21.495Z,101675.06
2022-12-26T12:37:03.339Z,101671.53
2022-12-26T12:39:44.378Z,101670.69
2022-12-26T12:42:19.862Z,101679.81
2022-12-26T12:45:23.179Z,101685.00
2022-12-26T12:48:07.474Z,101688.38
2022-12-26T12:50:56.779Z,101686.41
2022-12-26T12:53:39.672Z,101690.22
2022-12-26T12:56:15.007Z,101660.59
2022-12-26T12:58:49.045Z,101679.81
2022-12-26T13:01:32.669Z,101706.47
2022-12-26T13:04:09.255Z,101696.03
2022-12-26T13:06:44.738Z,101653.28
2022-12-26T13:09:20.522Z,101691.59
2022-12-26T13:12:06.763Z,101696.63
2022-12-26T13:14:39.454Z,101697.31
2022-12-26T13:17:17.614Z,101681.75
2022-12-26T13:20:03.308Z,101707.03
2022-12-26T13:22:43.176Z,101669.34
2022-12-26T13:25:13.741Z,101697.66
2022-12-26T13:27:40.252Z,101702.41
2022-12-26T13:30:13.344Z,101698.03
2022-12-26T13:32:44.890Z,101651.44
2022-12-26T13:35:54.657Z,101714.16
2022-12-26T13:38:22.623Z,101711.91
2022-12-26T13:40:57.462Z,101729.78
2022-12-26T13:43:25.328Z,101675.22
2022-12-26T13:45:55.049Z,101734.56
2022-12-26T13:48:21.492Z,101753.63
2022-12-26T13:50:56.874Z,101698.09
2022-12-26T13:53:26.273Z,101737.72
2022-12-26T13:56:01.372Z,101758.03
2022-12-26T13:58:49.598Z,101761.78
2022-12-26T14:01:37.561Z,101765.03
2022-12-26T14:04:22.603Z,101772.53
2022-12-26T14:07:07.849Z,101778.03
2022-12-26T14:09:38.996Z,101750.91
2022-12-26T14:12:14.933Z,101806.03
2022-12-26T14:15:04.493Z,101810.50
2022-12-26T14:17:37.363Z,101807.16
2022-12-26T14:20:15.558Z,101818.63
2022-12-26T14:23:02.434Z,101803.88
2022-12-26T14:25:50.497Z,101802.06
2022-12-26T14:28:26.271Z,101819.06
2022-12-26T14:31:17.141Z,101770.16
2022-12-26T14:33:50.925Z,101849.06
2022-12-26T14:36:36.166Z,101798.81
2022-12-26T14:39:20.917Z,101858.50
2022-12-26T14:42:23.922Z,101861.84
2022-12-26T14:44:52.951Z,101811.50
2022-12-26T14:47:44.135Z,101894.47
2022-12-26T14:50:32.726Z,101903.19
2022-12-26T14:53:26.914Z,101897.34
2022-12-26T14:56:19.430Z,101833.38
2022-12-26T14:58:50.400Z,101903.88
2022-12-26T15:01:17.049Z,101903.13
2022-12-26T15:04:15.300Z,101897.41
2022-12-26T15:07:16.889Z,101902.50
2022-12-26T15:10:33.600Z,101912.97
2022-12-26T15:13:41.171Z,101904.94
2022-12-26T15:16:23.107Z,101906.97
2022-12-26T15:19:11.223Z,101903.06
2022-12-26T15:21:55.985Z,101910.06
2022-12-26T15:27:57.284Z,101907.38
2022-12-26T15:30:54.881Z,101907.84
2022-12-26T15:33:35.020Z,101898.16
2022-12-26T15:36:26.089Z,101828.69
2022-12-26T15:38:59.591Z,101911.13
2022-12-26T15:41:39.896Z,101912.69
2022-12-26T15:44:32.728Z,101782.94
2022-12-26T15:47:24.845Z,101902.59
2022-12-26T15:49:54.518Z,101911.63
2022-12-26T15:52:32.986Z,101826.91
2022-12-26T15:55:02.490Z,101907.53
2022-12-26T15:57:34.847Z,101913.69
2022-12-26T16:00:07.345Z,101914.91
2022-12-26T16:03:09.680Z,101915.19
2022-12-26T16:05:57.407Z,101920.50
2022-12-26T16:08:36.025Z,101926.91
2022-12-26T16:11:14.752Z,101932.09
2022-12-26T16:14:13.888Z,101934.25
2022-12-26T16:16:40.424Z,101944.09
2022-12-26T16:19:21.899Z,101940.53
2022-12-26T16:22:00.072Z,101840.25
2022-12-26T16:24:27.390Z,101936.31
2022-12-26T16:26:54.010Z,101940.38
2022-12-26T16:29:21.203Z,101927.59
2022-12-26T16:31:47.848Z,101937.66
2022-12-26T16:34:19.172Z,101940.66
2022-12-26T16:36:46.503Z,101864.28
2022-12-26T16:39:13.215Z,101918.16
2022-12-26T16:42:07.192Z,101931.81
2022-12-26T16:44:38.227Z,101939.97
2022-12-26T16:47:11.721Z,101934.34
2022-12-26T16:49:39.151Z,101930.50
2022-12-26T16:52:05.707Z,101936.75
2022-12-26T16:54:40.027Z,101852.06
2022-12-26T16:57:18.090Z,101865.78
2022-12-26T16:59:50.535Z,101860.56
2022-12-26T17:02:30.814Z,101932.47
2022-12-26T17:05:05.308Z,101938.28
2022-12-26T17:07:43.419Z,101945.34
2022-12-26T17:10:34.628Z,101956.88
2022-12-26T17:13:05.550Z,101962.56
2022-12-26T17:15:35.893Z,101898.88
2022-12-26T17:18:48.546Z,101977.47
2022-12-26T17:21:35.338Z,101973.50
2022-12-26T17:24:07.774Z,101956.19
2022-12-26T17:26:36.949Z,101895.66
2022-12-26T17:29:04.070Z,101959.44
2022-12-26T17:31:32.706Z,101979.84
2022-12-26T17:34:02.407Z,101902.41
2022-12-26T17:37:16.521Z,101987.91
2022-12-26T17:39:25.252Z,101898.75
2022-12-26T17:42:02.418Z,101981.47
2022-12-26T17:44:37.721Z,101985.84
2022-12-26T17:47:15.708Z,101989.22
2022-12-26T17:49:42.253Z,101996.44
2022-12-26T17:52:11.379Z,102003.16
2022-12-26T17:54:38.152Z,102005.56
2022-12-26T17:57:04.697Z,102019.56
2022-12-26T17:59:31.209Z,102003.13
2022-12-26T18:01:57.760Z,101974.53
2022-12-26T18:04:24.323Z,102001.00
2022-12-26T18:06:50.793Z,102025.25
2022-12-26T18:09:25.462Z,102032.66
2022-12-26T18:11:54.186Z,102025.19
2022-12-26T18:14:21.655Z,101975.53
2022-12-26T18:16:50.278Z,102026.56
2022-12-26T18:19:18.985Z,101950.47
2022-12-26T18:21:45.978Z,102024.91
2022-12-26T18:24:12.459Z,101967.19
2022-12-26T18:26:39.010Z,101969.34
2022-12-26T18:29:05.635Z,101979.19
2022-12-26T18:31:32.276Z,102038.66
2022-12-26T18:33:58.995Z,102041.81
2022-12-26T18:36:31.873Z,102042.75
2022-12-26T18:38:58.779Z,102056.28
2022-12-26T18:41:25.456Z,101997.22
2022-12-26T18:43:52.370Z,102052.69
2022-12-26T18:46:25.111Z,102061.00
2022-12-26T18:48:52.545Z,102061.81
2022-12-26T18:51:19.163Z,102069.63
2022-12-26T18:53:45.722Z,102081.31
2022-12-26T18:56:17.791Z,102071.38
2022-12-26T18:58:45.313Z,102068.34
2022-12-26T19:01:14.112Z,102085.34
2022-12-26T19:03:41.894Z,102024.63
2022-12-26T19:06:34.875Z,102099.47
2022-12-26T19:09:01.674Z,102106.00
2022-12-26T19:11:28.161Z,102106.22
2022-12-26T19:13:54.670Z,102104.72
2022-12-26T19:16:21.314Z,102045.81
2022-12-26T19:18:47.823Z,102123.69
2022-12-26T19:21:15.969Z,102080.66
2022-12-26T19:23:45.633Z,102127.09
2022-12-26T19:26:16.452Z,102133.06
2022-12-26T19:28:43.129Z,102136.09
2022-12-26T19:31:14.983Z,102059.56
2022-12-26T19:33:41.850Z,102127.09
2022-12-26T19:36:09.200Z,102133.72
2022-12-26T19:38:35.965Z,102125.00
2022-12-26T19:41:10.994Z,102042.03
2022-12-26T19:43:37.919Z,102084.00
2022-12-26T19:46:10.400Z,102073.47
2022-12-26T19:48:38.167Z,102133.19
2022-12-26T19:51:10.084Z,102127.41
2022-12-26T19:53:37.761Z,102134.34
2022-12-26T19:56:19.413Z,102115.25
2022-12-26T19:58:49.474Z,102124.13
2022-12-26T20:01:21.673Z,102093.63
2022-12-26T20:03:49.072Z,102130.75
2022-12-26T20:06:18.142Z,102129.09
2022-12-26T20:08:46.088Z,102130.84
2022-12-26T20:11:18.668Z,102130.97
2022-12-26T20:13:45.748Z,102061.78
2022-12-26T20:16:45.755Z,102119.84
2022-12-26T20:19:04.274Z,102120.53
2022-12-26T20:21:30.754Z,102119.06
2022-12-26T20:24:01.330Z,102103.88
2022-12-26T20:26:29.337Z,102100.59
2022-12-26T20:28:58.338Z,102106.94
2022-12-26T20:31:24.893Z,102049.16
2022-12-26T20:33:52.669Z,102116.63
2022-12-26T20:36:24.979Z,102124.03
2022-12-26T20:38:54.153Z,102136.25
2022-12-26T20:41:23.756Z,102058.66
2022-12-26T20:43:51.245Z,102125.00
2022-12-26T20:46:26.788Z,102085.91
2022-12-26T20:48:53.855Z,102068.59
2022-12-26T20:51:23.235Z,102111.91
2022-12-26T20:53:50.841Z,102128.97
2022-12-26T20:56:17.549Z,102141.31
2022-12-26T20:58:44.456Z,102138.03
2022-12-26T21:01:17.396Z,102150.94
2022-12-26T21:03:44.409Z,102076.38
2022-12-26T21:06:31.138Z,102164.66
2022-12-26T21:08:58.440Z,102098.69
2022-12-26T21:11:27.841Z,102173.31
2022-12-26T21:13:57.685Z,102178.03
2022-12-26T21:16:33.917Z,102182.88
2022-12-26T21:19:01.334Z,102185.97
2022-12-26T21:21:31.332Z,102187.50
2022-12-26T21:24:01.184Z,102193.00
2022-12-26T21:26:28.275Z,102204.97
2022-12-26T21:29:02.241Z,102168.28
2022-12-26T21:31:30.384Z,102119.00
2022-12-26T21:34:00.971Z,102199.19
2022-12-26T21:36:28.923Z,102204.38
2022-12-26T21:38:57.461Z,102210.88
2022-12-26T21:41:25.134Z,102200.75
2022-12-26T21:43:54.352Z,102198.31
2022-12-26T21:46:21.334Z,102207.81
2022-12-26T21:48:47.808Z,102152.19
2022-12-26T21:51:15.162Z,102218.50
2022-12-26T21:53:42.113Z,102226.84
2022-12-26T21:56:10.327Z,102232.00
2022-12-26T21:58:37.327Z,102227.53
2022-12-26T22:01:03.894Z,102231.41
2022-12-26T22:03:30.403Z,102237.38
2022-12-26T22:05:56.933Z,102235.63
2022-12-26T22:08:23.436Z,102253.00
2022-12-26T22:10:49.879Z,102240.59
2022-12-26T22:13:17.110Z,102216.81
2022-12-26T22:15:45.647Z,102259.09
2022-12-26T22:18:12.271Z,102256.41
2022-12-26T22:20:38.772Z,102259.81
2022-12-26T22:23:05.216Z,102259.91
2022-12-26T22:25:31.646Z,102204.25
2022-12-26T22:27:58.995Z,102255.47
2022-12-26T22:30:25.979Z,102259.31
2022-12-26T22:32:52.405Z,102248.31
2022-12-26T22:35:19.108Z,102198.53
2022-12-26T22:37:45.588Z,102253.69
2022-12-26T22:40:12.295Z,102256.63
2022-12-26T22:42:38.772Z,102253.78
2022-12-26T22:45:05.771Z,102242.31
2022-12-26T22:47:32.195Z,102260.13
2022-12-26T22:49:58.665Z,102250.06
2022-12-26T22:52:25.112Z,102276.31
2022-12-26T22:54:51.640Z,102280.88
2022-12-26T22:57:18.109Z,102222.19
2022-12-26T23:02:31.077Z,102253.34
2022-12-26T23:04:57.914Z,102292.50
2022-12-26T23:07:24.876Z,102279.72
2022-12-26T23:09:51.686Z,102296.06
2022-12-26T23:12:18.345Z,102301.44
2022-12-26T23:14:45.608Z,102298.50
2022-12-26T23:17:16.103Z,102303.19
2022-12-26T23:19:47.773Z,102299.94
2022-12-26T23:22:14.967Z,102322.22
2022-12-26T23:24:41.490Z,102253.63
2022-12-26T23:27:11.944Z,102256.75
2022-12-26T23:29:38.545Z,102311.41
2022-12-26T23:32:06.514Z,102256.66
2022-12-26T23:34:33.035Z,102287.38
2022-12-26T23:36:59.582Z,102230.63
2022-12-26T23:39:26.244Z,102309.56
2022-12-26T23:41:52.972Z,102302.75
2022-12-26T23:44:19.440Z,102308.03
2022-12-26T23:46:46.043Z,102307.09
2022-12-26T23:49:16.009Z,102311.09
2022-12-26T23:51:43.140Z,102307.91
2022-12-26T23:54:09.933Z,102313.31
2022-12-26T23:56:37.243Z,102311.31
2022-12-26T23:59:04.305Z,102302.88
